Time;durP1;ratioP1;P1;durP2;ratioP2;P2;SDS_P1;SDS_P2;PMS_P1;PMS_P2;Temp;Humidity;BMP_temperature;BMP_pressure;BME280_temperature;BME280_humidity;BME280_pressure;Samples;Min_cycle;Max_cycle;Signal;HPM_P1;HPM_P2
2022/04/05 00:00:58;;;;;;;5.13;1.63;;;;;;;9.93;88.99;100667.16;5096107;27;96759;-35
2022/04/05 00:03:23;;;;;;;2.65;1.38;;;;;;;9.93;89.45;100669.88;5094936;27;99427;-35
2022/04/05 00:05:48;;;;;;;5.15;1.60;;;;;;;9.87;89.14;100661.28;5095638;27;97896;-35
2022/04/05 00:08:16;;;;;;;6.22;1.80;;;;;;;9.87;89.04;100666.69;5096003;27;96534;-35
2022/04/05 00:10:42;;;;;;;5.30;1.80;;;;;;;9.85;89.30;100665.91;5076726;27;96863;-35
2022/04/05 00:13:07;;;;;;;10.05;2.33;;;;;;;9.81;89.61;100661.66;5076977;27;100902;-35
2022/04/05 00:15:34;;;;;;;7.60;1.85;;;;;;;9.82;89.24;100666.97;5095261;27;99223;-35
2022/04/05 00:17:59;;;;;;;3.55;1.67;;;;;;;9.82;89.49;100671.50;5076790;27;96650;-35
2022/04/05 00:20:27;;;;;;;5.72;2.45;;;;;;;9.78;89.19;100673.53;5096022;27;96817;-35
2022/04/05 00:22:53;;;;;;;7.07;2.17;;;;;;;9.77;89.28;100677.19;5095292;27;98304;-35
2022/04/05 00:25:18;;;;;;;3.67;1.65;;;;;;;9.72;89.49;100676.59;5076578;27;100797;-35
2022/04/05 00:27:45;;;;;;;9.02;2.15;;;;;;;9.77;89.47;100688.91;5095210;27;96616;-35
2022/04/05 00:30:11;;;;;;;4.43;1.85;;;;;;;9.73;89.70;100694.59;5095508;27;96694;-35
2022/04/05 00:32:36;;;;;;;6.70;2.10;;;;;;;9.71;89.44;100697.38;5076622;27;101633;-35
2022/04/05 00:35:03;;;;;;;4.53;2.38;;;;;;;9.69;89.28;100688.47;5094503;27;127270;-35
2022/04/05 00:37:28;;;;;;;3.85;1.80;;;;;;;9.64;89.81;100684.31;5076716;27;96621;-35
2022/04/05 00:39:53;;;;;;;6.65;1.95;;;;;;;9.60;89.51;100680.91;5094563;27;121577;-35
2022/04/05 00:42:19;;;;;;;6.45;2.10;;;;;;;9.59;89.56;100679.19;5095337;27;97727;-35
2022/04/05 00:44:44;;;;;;;3.92;2.03;;;;;;;9.59;89.12;100676.47;5095528;27;97973;-35
2022/04/05 00:47:23;;;;;;;4.40;1.95;;;;;;;9.63;89.12;100685.25;5095360;27;96534;-35
2022/04/05 00:49:50;;;;;;;4.78;1.90;;;;;;;9.57;89.29;100684.69;5076461;27;96890;-35
2022/04/05 00:52:17;;;;;;;7.70;2.42;;;;;;;9.53;89.36;100676.84;5075374;27;103399;-35
2022/04/05 00:54:45;;;;;;;5.65;2.50;;;;;;;9.55;89.66;100686.59;5075618;27;100579;-35
2022/04/05 00:57:12;;;;;;;8.18;1.75;;;;;;;9.56;89.55;100682.09;5076278;27;96455;-35
2022/04/05 00:59:43;;;;;;;8.02;1.88;;;;;;;9.56;89.49;100684.78;5076237;27;97084;-35
2022/04/05 01:02:14;;;;;;;3.87;2.07;;;;;;;9.49;90.22;100691.53;5076216;27;100827;-35
2022/04/05 01:04:42;;;;;;;4.85;2.00;;;;;;;9.49;89.62;100688.81;5094795;27;97954;-35
2022/04/05 01:07:15;;;;;;;3.25;2.03;;;;;;;9.46;89.42;100689.88;5076298;27;96512;-35
2022/04/05 01:09:41;;;;;;;3.88;1.55;;;;;;;9.42;89.70;100690.16;5076624;27;96770;-34
2022/04/05 01:12:08;;;;;;;9.23;1.65;;;;;;;9.42;89.90;100695.56;5094212;27;98138;-34
2022/04/05 01:14:34;;;;;;;3.78;1.77;;;;;;;9.42;89.45;100692.84;5075896;27;100577;-35
2022/04/05 01:17:00;;;;;;;2.67;1.70;;;;;;;9.42;89.51;100692.84;5075695;27;96532;-35
2022/04/05 01:19:26;;;;;;;3.00;1.52;;;;;;;9.44;89.64;100690.91;5076120;27;97098;-35
2022/04/05 01:21:51;;;;;;;2.38;1.38;;;;;;;9.46;89.75;100707.91;5094517;27;97315;-35
2022/04/05 01:24:16;;;;;;;3.45;1.85;;;;;;;9.42;89.72;100695.56;5093600;27;126780;-35
2022/04/05 01:26:44;;;;;;;4.28;1.13;;;;;;;9.34;89.75;100679.75;5093705;27;122031;-35
2022/04/05 01:29:10;;;;;;;2.22;1.20;;;;;;;9.39;89.73;100693.00;5094963;27;96733;-35
2022/04/05 01:31:43;;;;;;;2.85;1.80;;;;;;;9.34;90.18;100696.88;5075559;27;100994;-35
2022/04/05 01:34:09;;;;;;;2.47;1.20;;;;;;;9.31;89.82;100688.94;5094800;27;97778;-35
2022/04/05 01:36:40;;;;;;;3.30;1.85;;;;;;;9.33;89.75;100689.72;5094334;27;96522;-35
2022/04/05 01:39:06;;;;;;;2.47;1.67;;;;;;;9.40;89.67;100697.47;5075843;27;96702;-35
2022/04/05 01:41:31;;;;;;;2.50;1.52;;;;;;;9.32;89.70;100684.41;5093505;27;99213;-35
2022/04/05 01:43:57;;;;;;;2.60;1.52;;;;;;;9.36;89.54;100697.63;5094267;27;97802;-35
2022/04/05 01:46:22;;;;;;;3.60;1.55;;;;;;;9.35;89.82;100681.53;5075287;27;108271;-35
2022/04/05 01:48:47;;;;;;;7.95;1.80;;;;;;;9.32;89.63;100677.16;5093531;27;114071;-35
2022/04/05 01:51:12;;;;;;;2.97;1.75;;;;;;;9.35;89.78;100689.63;5093087;27;126856;-35
2022/04/05 01:53:38;;;;;;;3.20;1.90;;;;;;;9.32;89.23;100679.88;5092978;27;126828;-35
2022/04/05 01:56:03;;;;;;;6.82;1.73;;;;;;;9.34;89.72;100679.75;5094208;27;96553;-35
2022/04/05 01:58:28;;;;;;;6.35;2.08;;;;;;;9.31;90.25;100680.81;5094482;27;96775;-35
2022/04/05 02:00:54;;;;;;;6.22;1.67;;;;;;;9.33;89.68;100686.16;5074333;27;127180;-35
2022/04/05 02:03:19;;;;;;;2.97;1.63;;;;;;;9.37;89.52;100685.00;5093659;27;98934;-34
2022/04/05 02:05:46;;;;;;;3.78;1.88;;;;;;;9.28;89.50;100677.44;5092293;27;120881;-35
2022/04/05 02:08:13;;;;;;;3.65;1.88;;;;;;;9.34;89.13;100683.38;5093815;27;96470;-35
2022/04/05 02:10:38;;;;;;;3.70;2.17;;;;;;;9.30;89.60;100672.81;5074600;27;102285;-35
2022/04/05 02:13:03;;;;;;;2.83;1.73;;;;;;;9.36;89.42;100685.94;5093175;27;118612;-34
2022/04/05 02:15:28;;;;;;;3.53;1.90;;;;;;;9.33;89.31;100676.19;5093958;27;96511;-35
2022/04/05 02:17:54;;;;;;;2.95;1.83;;;;;;;9.34;89.35;100683.38;5094194;27;96737;-35
2022/04/05 02:20:19;;;;;;;3.03;2.03;;;;;;;9.28;89.59;100675.59;5092737;27;127092;-35
2022/04/05 02:22:44;;;;;;;3.70;1.88;;;;;;;9.29;89.51;100676.47;5093369;27;116091;-35
2022/04/05 02:25:10;;;;;;;5.40;1.90;;;;;;;9.33;89.88;100686.16;5092642;27;120307;-35
2022/04/05 02:27:38;;;;;;;7.45;1.75;;;;;;;9.33;89.47;100684.31;5093573;27;98847;-35
2022/04/05 02:30:05;;;;;;;4.28;1.92;;;;;;;9.31;89.67;100688.06;5074254;27;100986;-35
2022/04/05 02:32:30;;;;;;;2.40;1.55;;;;;;;9.31;89.74;100682.66;5074663;27;101995;-35
2022/04/05 02:34:56;;;;;;;2.88;1.40;;;;;;;9.32;89.47;100687.13;5093549;27;96470;-35
2022/04/05 02:37:21;;;;;;;2.55;1.60;;;;;;;9.35;89.87;100686.94;5092501;27;122315;-35
2022/04/05 02:39:46;;;;;;;3.38;1.75;;;;;;;9.33;89.77;100678.91;5092529;27;127006;-35
2022/04/05 02:42:12;;;;;;;2.25;1.60;;;;;;;9.30;89.46;100678.22;5093365;27;97743;-35
2022/04/05 02:44:38;;;;;;;1.52;1.20;;;;;;;9.33;89.41;100687.00;5093427;27;96483;-34
2022/04/05 02:47:04;;;;;;;3.20;1.98;;;;;;;9.33;89.71;100678.91;5093663;27;96821;-35
2022/04/05 02:49:29;;;;;;;3.53;1.95;;;;;;;9.32;89.64;100685.28;5093239;27;97998;-35
2022/04/05 02:51:55;;;;;;;2.42;1.55;;;;;;;9.33;89.34;100681.59;5092964;27;98190;-35
2022/04/05 02:54:20;;;;;;;3.88;2.33;;;;;;;9.35;89.58;100681.53;5092061;27;119736;-35
2022/04/05 02:56:45;;;;;;;2.28;1.38;;;;;;;9.36;89.18;100683.25;5093218;27;96778;-35
2022/04/05 02:59:11;;;;;;;1.80;1.40;;;;;;;9.38;89.17;100681.34;5092198;27;127088;-35
2022/04/05 03:01:36;;;;;;;2.92;1.92;;;;;;;9.38;89.38;100680.47;5092612;27;116036;-34
2022/04/05 03:04:01;;;;;;;3.10;1.85;;;;;;;9.39;89.02;100679.50;5093041;27;96885;-35
2022/04/05 03:06:27;;;;;;;4.68;2.35;;;;;;;9.37;89.74;100679.59;5092329;27;119025;-34
2022/04/05 03:08:56;;;;;;;3.67;2.45;;;;;;;9.34;88.98;100667.16;5092200;27;126150;-35
2022/04/05 03:11:22;;;;;;;5.05;2.30;;;;;;;9.37;89.12;100679.59;5092906;27;97892;-34
2022/04/05 03:13:47;;;;;;;4.32;2.33;;;;;;;9.38;89.02;100669.66;5092977;27;96504;-35
2022/04/05 03:16:12;;;;;;;4.47;2.58;;;;;;;9.34;89.54;100664.44;5093240;27;96709;-35
2022/04/05 03:18:38;;;;;;;4.57;2.47;;;;;;;9.36;89.42;100665.19;5092567;27;126704;-35
2022/04/05 03:21:04;;;;;;;3.88;2.45;;;;;;;9.32;89.30;100665.50;5096130;27;99250;-35
2022/04/05 03:23:29;;;;;;;4.30;2.72;;;;;;;9.38;89.02;100675.06;5077818;27;96661;-34
2022/04/05 03:25:54;;;;;;;4.78;2.47;;;;;;;9.33;88.89;100672.63;5095834;27;111044;-35
2022/04/05 03:28:20;;;;;;;7.80;2.92;;;;;;;9.31;89.96;100669.16;5096423;27;97908;-34
2022/04/05 03:30:47;;;;;;;3.72;2.10;;;;;;;9.31;90.23;100666.44;5096200;27;99176;-35
2022/04/05 03:33:13;;;;;;;2.60;1.63;;;;;;;9.31;90.73;100666.44;5077740;27;96608;-35
2022/04/05 03:35:39;;;;;;;3.72;2.22;;;;;;;9.29;90.12;100661.13;5077971;27;96859;-35
2022/04/05 03:38:04;;;;;;;3.05;1.92;;;;;;;9.26;90.18;100650.50;5095715;27;114487;-35
2022/04/05 03:40:31;;;;;;;3.50;2.20;;;;;;;9.30;89.86;100668.28;5096127;27;99267;-35
2022/04/05 03:42:57;;;;;;;6.43;2.72;;;;;;;9.32;89.95;100662.78;5095573;27;96597;-35
2022/04/05 03:45:22;;;;;;;5.93;2.75;;;;;;;9.27;89.82;100656.75;5096396;27;96842;-35
2022/04/05 03:47:48;;;;;;;3.80;2.38;;;;;;;9.27;90.20;100662.16;5096234;27;97859;-35
2022/04/05 03:50:14;;;;;;;4.72;2.33;;;;;;;9.29;89.84;100661.13;5095327;27;114689;-34
2022/04/05 03:52:40;;;;;;;6.13;2.95;;;;;;;9.34;89.57;100661.75;5077225;27;96717;-35
2022/04/05 03:55:06;;;;;;;3.38;2.30;;;;;;;9.33;89.92;100657.28;5077451;27;97012;-35
2022/04/05 03:57:31;;;;;;;5.13;2.65;;;;;;;9.33;89.97;100673.50;5095765;27;98922;-35
2022/04/05 03:59:56;;;;;;;3.35;2.00;;;;;;;9.27;89.74;100660.38;5096096;27;99227;-34
2022/04/05 04:02:21;;;;;;;9.85;2.88;;;;;;;9.33;90.07;100664.53;5096051;27;96557;-35
2022/04/05 04:04:47;;;;;;;3.53;2.17;;;;;;;9.32;89.93;100666.34;5094855;27;117785;-35
2022/04/05 04:07:12;;;;;;;7.13;2.72;;;;;;;9.34;89.77;100666.25;5095082;27;99137;-35
2022/04/05 04:09:38;;;;;;;5.82;2.30;;;;;;;9.31;89.74;100653.78;5095598;27;106979;-34
2022/04/05 04:12:04;;;;;;;3.22;2.10;;;;;;;9.30;89.15;100660.16;5095640;27;96732;-35
2022/04/05 04:14:31;;;;;;;2.35;1.67;;;;;;;9.27;89.48;100652.25;5077251;27;96761;-34
2022/04/05 04:16:57;;;;;;;3.92;2.17;;;;;;;9.34;89.97;100661.75;5076924;27;100898;-35
2022/04/05 04:19:22;;;;;;;3.63;1.90;;;;;;;9.35;89.68;100659.91;5095645;27;97775;-35
2022/04/05 04:21:47;;;;;;;4.35;2.05;;;;;;;9.34;89.57;100664.44;5095488;27;96473;-35
2022/04/05 04:24:13;;;;;;;7.63;2.28;;;;;;;9.32;89.66;100658.25;5096133;27;96805;-35
2022/04/05 04:26:38;;;;;;;5.10;1.77;;;;;;;9.33;90.01;100654.56;5095389;27;99563;-35
2022/04/05 04:29:04;;;;;;;3.67;1.98;;;;;;;9.28;90.14;100651.28;5095225;27;99128;-35
2022/04/05 04:31:29;;;;;;;4.40;1.75;;;;;;;9.35;89.31;100659.91;5093725;27;96484;-35
2022/04/05 04:33:55;;;;;;;5.47;2.00;;;;;;;9.31;89.72;100664.59;5095468;27;96764;-34
2022/04/05 04:36:21;;;;;;;6.22;2.22;;;;;;;9.30;90.43;100659.31;5095233;27;99197;-35
2022/04/05 04:38:47;;;;;;;4.65;1.95;;;;;;;9.28;90.06;100653.13;5095311;27;97844;-35
2022/04/05 04:41:12;;;;;;;2.70;1.67;;;;;;;9.34;90.07;100653.63;5076692;27;96590;-35
2022/04/05 04:43:38;;;;;;;5.03;1.85;;;;;;;9.32;90.37;100654.69;5094370;27;120011;-35
2022/04/05 04:46:04;;;;;;;4.90;2.38;;;;;;;9.34;90.27;100659.03;5095202;27;97932;-35
2022/04/05 04:48:30;;;;;;;4.88;2.08;;;;;;;9.29;89.35;100653.00;5095592;27;97955;-35
2022/04/05 04:50:55;;;;;;;4.72;1.63;;;;;;;9.32;89.71;100654.69;5095104;27;96521;-34
2022/04/05 04:53:20;;;;;;;3.40;1.83;;;;;;;9.31;90.01;100652.94;5094709;27;96683;-35
2022/04/05 04:55:46;;;;;;;3.65;2.15;;;;;;;9.34;89.83;100656.34;5094455;27;99197;-35
2022/04/05 04:58:11;;;;;;;4.13;2.00;;;;;;;9.36;89.69;100669.72;5094362;27;118431;-35
2022/04/05 05:00:36;;;;;;;6.05;1.83;;;;;;;9.32;89.52;100658.25;5095173;27;96526;-34
2022/04/05 05:03:02;;;;;;;2.90;1.45;;;;;;;9.38;89.49;100662.41;5094772;27;96810;-35
2022/04/05 05:05:27;;;;;;;3.60;2.10;;;;;;;9.32;89.46;100652.84;5094307;27;104761;-35
2022/04/05 05:07:53;;;;;;;3.28;2.03;;;;;;;9.34;89.79;100648.22;5094809;27;97843;-35
2022/04/05 05:10:21;;;;;;;9.32;1.88;;;;;;;9.34;89.85;100655.44;5094624;27;96498;-35
2022/04/05 05:12:46;;;;;;;2.17;1.40;;;;;;;9.39;89.72;100663.28;5076514;27;96952;-35
2022/04/05 05:15:15;;;;;;;4.60;1.60;;;;;;;9.37;89.35;100660.69;5094858;27;97147;-35
2022/04/05 05:17:41;;;;;;;6.15;1.65;;;;;;;9.31;89.66;100656.50;5075843;27;100802;-35
2022/04/05 05:20:07;;;;;;;2.58;1.42;;;;;;;9.40;89.25;100676.72;5094352;27;96631;-35
2022/04/05 05:22:33;;;;;;;3.55;2.28;;;;;;;9.41;88.97;100664.91;5075536;27;97606;-35
2022/04/05 05:24:58;;;;;;;3.45;2.00;;;;;;;9.47;88.92;100682.63;5093717;27;99355;-35
2022/04/05 05:27:24;;;;;;;4.68;1.23;;;;;;;9.43;88.68;100667.53;5092722;27;97797;-35
2022/04/05 05:29:49;;;;;;;3.15;1.77;;;;;;;9.44;89.11;100675.56;5093903;27;96948;-35
2022/04/05 05:32:15;;;;;;;2.97;1.55;;;;;;;9.50;88.70;100683.31;5093632;27;97002;-35
2022/04/05 05:34:40;;;;;;;4.57;1.65;;;;;;;9.49;89.01;100678.00;5093521;27;98840;-34
2022/04/05 05:37:05;;;;;;;3.97;2.00;;;;;;;9.47;88.64;100674.53;5093013;27;126743;-35
2022/04/05 05:39:32;;;;;;;2.85;1.60;;;;;;;9.54;88.45;100684.88;5092733;27;119877;-35
2022/04/05 05:41:58;;;;;;;4.80;1.58;;;;;;;9.53;88.67;100676.84;5091653;27;96742;-35
2022/04/05 05:44:24;;;;;;;1.48;0.82;;;;;;;9.47;88.77;100686.19;5074077;27;101688;-34
2022/04/05 05:46:50;;;;;;;3.13;1.58;;;;;;;9.46;89.07;100689.88;5074870;27;100959;-34
2022/04/05 05:49:15;;;;;;;6.60;1.73;;;;;;;9.51;89.43;100694.97;5093675;27;96724;-34
2022/04/05 05:51:40;;;;;;;3.15;1.75;;;;;;;9.50;89.08;100690.56;5092558;27;121452;-34
2022/04/05 05:54:06;;;;;;;3.00;1.50;;;;;;;9.45;88.97;100677.31;5092822;27;118001;-34
2022/04/05 05:56:31;;;;;;;8.75;1.67;;;;;;;9.52;88.77;100691.34;5093798;27;99631;-34
2022/04/05 05:58:56;;;;;;;4.15;1.38;;;;;;;9.53;88.60;100695.75;5093567;27;114594;-34
2022/04/05 06:01:23;;;;;;;2.67;1.60;;;;;;;9.48;88.83;100692.47;5093759;27;114280;-34
2022/04/05 06:03:48;;;;;;;2.08;1.10;;;;;;;9.50;89.27;100690.56;5075105;27;100578;-34
2022/04/05 06:06:14;;;;;;;4.30;1.50;;;;;;;9.55;88.90;100699.25;5093869;27;97847;-34
2022/04/05 06:08:40;;;;;;;5.45;1.90;;;;;;;9.51;88.63;100686.88;5093507;27;96438;-34
2022/04/05 06:11:07;;;;;;;9.65;1.75;;;;;;;9.56;88.08;100690.19;5093343;27;97713;-34
2022/04/05 06:13:33;;;;;;;2.53;1.55;;;;;;;9.53;88.50;100693.97;5094021;27;97548;-34
2022/04/05 06:15:58;;;;;;;2.17;1.25;;;;;;;9.55;88.99;100689.31;5075017;27;100511;-34
2022/04/05 06:18:24;;;;;;;2.08;1.48;;;;;;;9.59;88.84;100706.22;5093049;27;116862;-34
2022/04/05 06:20:49;;;;;;;2.22;1.38;;;;;;;9.53;88.67;100690.34;5093831;27;96784;-34
2022/04/05 06:23:14;;;;;;;2.92;1.30;;;;;;;9.61;88.60;100704.31;5093244;27;106510;-34
2022/04/05 06:25:40;;;;;;;1.83;1.13;;;;;;;9.65;88.30;100703.13;5093215;27;126697;-34
2022/04/05 06:28:07;;;;;;;3.58;1.30;;;;;;;9.63;88.34;100702.38;5093862;27;96447;-34
2022/04/05 06:30:35;;;;;;;1.30;1.05;;;;;;;9.65;88.08;100699.56;5075155;27;96729;-34
2022/04/05 06:33:14;;;;;;;2.10;1.10;;;;;;;9.72;88.13;100720.72;5074356;27;100762;-34
2022/04/05 06:35:45;;;;;;;1.35;0.95;;;;;;;9.72;87.73;100709.91;5074614;27;103557;-34
2022/04/05 06:38:11;;;;;;;1.70;1.33;;;;;;;9.70;87.87;100710.97;5074924;27;97994;-34
2022/04/05 06:40:37;;;;;;;2.50;1.48;;;;;;;9.71;87.62;100708.19;5093510;27;96724;-34
2022/04/05 06:43:02;;;;;;;1.23;0.95;;;;;;;9.72;87.67;100701.81;5074581;27;101165;-34
2022/04/05 06:45:29;;;;;;;2.53;1.10;;;;;;;9.73;87.45;100703.56;5092819;27;99156;-34
2022/04/05 06:47:54;;;;;;;3.50;1.80;;;;;;;9.82;87.56;100722.88;5074786;27;96580;-34
2022/04/05 06:50:26;;;;;;;6.68;1.30;;;;;;;9.83;87.67;100719.25;5093088;27;115192;-34
2022/04/05 06:52:53;;;;;;;2.03;1.35;;;;;;;9.83;88.14;100719.25;5074594;27;100866;-34
2022/04/05 06:55:19;;;;;;;3.67;1.70;;;;;;;9.90;87.54;100720.59;5078190;27;99378;-34
2022/04/05 06:57:54;;;;;;;4.25;1.63;;;;;;;9.85;87.32;100707.38;5077626;27;96932;-34
2022/04/05 07:00:22;;;;;;;5.13;1.10;;;;;;;9.96;87.07;100728.34;5078268;27;96817;-34
2022/04/05 07:02:48;;;;;;;4.05;1.48;;;;;;;9.93;87.32;100717.72;5078053;27;101079;-34
2022/04/05 07:05:13;;;;;;;2.60;1.67;;;;;;;9.97;87.53;100725.53;5078072;27;100696;-34
2022/04/05 07:07:39;;;;;;;3.78;1.27;;;;;;;10.00;87.09;100732.59;5096979;27;96626;-34
2022/04/05 07:10:06;;;;;;;3.50;1.10;;;;;;;10.00;86.62;100719.06;5096786;27;97856;-34
2022/04/05 07:12:32;;;;;;;4.70;1.20;;;;;;;10.05;86.44;100719.66;5073656;27;100841;-34
2022/04/05 07:14:57;;;;;;;1.50;0.93;;;;;;;10.12;86.82;100739.97;5076350;27;97373;-34
2022/04/05 07:17:23;;;;;;;2.60;1.23;;;;;;;10.16;86.21;100735.25;5076207;27;96701;-34
2022/04/05 07:19:48;;;;;;;1.88;1.15;;;;;;;10.13;86.49;100725.50;5076292;27;96820;-34
2022/04/05 07:22:13;;;;;;;2.33;1.33;;;;;;;10.15;86.26;100728.97;5075183;27;99295;-34
2022/04/05 07:24:39;;;;;;;2.78;1.67;;;;;;;10.19;86.02;100737.75;5075917;27;97871;-34
2022/04/05 07:27:04;;;;;;;2.47;1.33;;;;;;;10.19;85.76;100735.91;5075664;27;96679;-34
2022/04/05 07:29:29;;;;;;;2.63;1.35;;;;;;;10.16;85.97;100732.53;5075767;27;96929;-34
2022/04/05 07:31:55;;;;;;;4.07;1.23;;;;;;;10.16;85.86;100730.69;5075509;27;99391;-34
2022/04/05 07:34:20;;;;;;;3.38;1.33;;;;;;;10.18;86.22;100730.63;5075805;27;97879;-34
2022/04/05 07:36:45;;;;;;;2.03;1.17;;;;;;;10.21;85.76;100746.66;5075109;27;116361;-34
2022/04/05 07:39:11;;;;;;;2.15;1.00;;;;;;;10.13;86.25;100728.19;5076137;27;96966;-34
2022/04/05 07:41:36;;;;;;;1.48;0.90;;;;;;;10.16;85.85;100737.97;5074455;27;125440;-34
2022/04/05 07:44:02;;;;;;;2.03;1.05;;;;;;;10.15;86.04;100742.50;5075273;27;99099;-34
2022/04/05 07:46:27;;;;;;;3.80;0.90;;;;;;;10.14;85.94;100729.91;5073650;27;97489;-34
2022/04/05 07:48:52;;;;;;;2.92;1.08;;;;;;;10.14;86.16;100729.91;5075544;27;99449;-34
2022/04/05 07:51:18;;;;;;;2.15;1.00;;;;;;;10.20;86.09;100734.06;5075325;27;98042;-34
2022/04/05 07:53:44;;;;;;;4.70;1.10;;;;;;;10.16;86.18;100736.13;5075126;27;99131;-34
2022/04/05 07:56:12;;;;;;;3.30;1.25;;;;;;;10.16;86.18;100728.00;5073874;27;96617;-34
2022/04/05 07:58:38;;;;;;;1.15;0.65;;;;;;;10.20;86.02;100737.69;5074092;27;96754;-34
2022/04/05 08:01:04;;;;;;;6.72;1.10;;;;;;;10.20;86.09;100743.09;5073716;27;100987;-34
2022/04/05 08:03:29;;;;;;;6.68;1.27;;;;;;;10.21;86.02;100730.41;5075703;27;97341;-34
2022/04/05 08:05:54;;;;;;;3.75;0.98;;;;;;;10.19;85.91;100732.34;5073731;27;123585;-34
2022/04/05 08:08:20;;;;;;;1.65;1.35;;;;;;;10.21;86.17;100738.53;5075263;27;96848;-34
2022/04/05 08:10:45;;;;;;;3.42;1.08;;;;;;;10.18;86.62;100742.31;5074441;27;99493;-34
2022/04/05 08:13:10;;;;;;;3.25;1.27;;;;;;;10.12;86.41;100731.84;5073925;27;127789;-34
2022/04/05 08:15:36;;;;;;;2.40;1.40;;;;;;;10.10;86.61;100730.19;5074959;27;96520;-34
2022/04/05 08:18:01;;;;;;;3.58;1.33;;;;;;;10.18;86.23;100745.00;5075166;27;96775;-34
2022/04/05 08:20:26;;;;;;;2.47;1.30;;;;;;;10.18;86.02;100742.31;5074727;27;113944;-34
2022/04/05 08:22:52;;;;;;;2.00;0.93;;;;;;;10.30;86.63;100751.53;5074416;27;104902;-34
2022/04/05 08:25:18;;;;;;;1.80;0.85;;;;;;;10.29;86.31;100743.50;5073925;27;122144;-34
2022/04/05 08:27:46;;;;;;;2.65;1.15;;;;;;;10.30;86.38;100747.97;5075356;27;96773;-34
2022/04/05 08:30:15;;;;;;;3.08;1.63;;;;;;;10.38;86.00;100759.19;5073296;27;101008;-34
2022/04/05 08:32:42;;;;;;;1.63;1.08;;;;;;;10.36;86.00;100747.56;5073595;27;97976;-34
2022/04/05 08:35:12;;;;;;;3.40;1.13;;;;;;;10.34;86.24;100752.19;5072903;27;97332;-34
2022/04/05 08:37:37;;;;;;;4.35;1.17;;;;;;;10.31;85.86;100738.88;5074725;27;96765;-34
2022/04/05 08:40:06;;;;;;;1.38;0.98;;;;;;;10.27;86.43;100751.69;5074522;27;97935;-34
2022/04/05 08:42:44;;;;;;;2.60;1.50;;;;;;;10.29;86.32;100757.03;5073048;27;100707;-34
2022/04/05 08:45:12;;;;;;;2.08;1.38;;;;;;;10.29;86.31;100760.59;5074901;27;96560;-34
2022/04/05 08:47:47;;;;;;;2.35;1.25;;;;;;;10.28;86.37;100744.44;5073379;27;96815;-34
2022/04/05 08:50:20;;;;;;;2.67;1.50;;;;;;;10.28;86.39;100748.06;5073051;27;100736;-34
2022/04/05 08:52:46;;;;;;;6.25;1.40;;;;;;;10.30;86.45;100765.06;5073204;27;100744;-34
2022/04/05 08:55:13;;;;;;;3.88;1.75;;;;;;;10.30;85.99;100764.22;5073024;27;96573;-34
2022/04/05 08:57:38;;;;;;;4.30;0.98;;;;;;;10.35;86.39;100767.50;5073069;27;96716;-34
2022/04/05 09:00:09;;;;;;;1.67;0.93;;;;;;;10.28;86.43;100755.28;5074036;27;97348;-34
2022/04/05 09:02:34;;;;;;;5.75;1.38;;;;;;;10.37;85.91;100774.56;5055674;27;100975;-34
2022/04/05 09:05:00;;;;;;;2.08;1.23;;;;;;;10.40;85.96;100762.66;5073941;27;96763;-34
2022/04/05 09:07:29;;;;;;;2.10;1.20;;;;;;;10.34;85.99;100753.06;5073592;27;116172;-34
2022/04/05 09:10:16;;;;;;;6.28;2.17;;;;;;;10.44;85.66;100768.75;5072783;27;100890;-34
2022/04/05 09:12:49;;;;;;;11.00;1.65;;;;;;;10.47;86.06;100771.28;5072442;27;100816;-34
2022/04/05 09:15:17;;;;;;;5.10;1.55;;;;;;;10.49;85.89;100772.94;5072623;27;96647;-34
2022/04/05 09:17:45;;;;;;;1.95;1.42;;;;;;;10.41;85.73;100773.38;5073625;27;96768;-34
2022/04/05 09:20:12;;;;;;;1.80;1.33;;;;;;;10.34;85.84;100757.63;5072478;27;100908;-34
2022/04/05 09:22:38;;;;;;;2.53;1.35;;;;;;;10.42;85.84;100782.41;5072511;27;101239;-34
2022/04/05 09:25:04;;;;;;;3.15;1.48;;;;;;;10.43;85.90;100786.84;5073551;27;96565;-34
2022/04/05 09:27:48;;;;;;;2.55;1.60;;;;;;;10.43;85.86;100789.53;5073821;27;96905;-34
2022/04/05 09:30:18;;;;;;;3.20;1.58;;;;;;;10.41;85.73;100784.22;5072385;27;100789;-34
2022/04/05 09:32:49;;;;;;;1.92;1.20;;;;;;;10.39;85.88;100775.34;5072294;27;100881;-34
2022/04/05 09:35:16;;;;;;;3.10;1.48;;;;;;;10.46;85.49;100786.63;5073925;27;96642;-34
2022/04/05 09:37:42;;;;;;;3.53;1.77;;;;;;;10.45;85.89;100781.34;5072311;27;96968;-34
2022/04/05 09:40:20;;;;;;;5.38;1.70;;;;;;;10.50;85.60;100788.19;5073814;27;97998;-34
2022/04/05 09:43:07;;;;;;;1.92;1.40;;;;;;;10.55;85.35;100791.47;5072388;27;100807;-34
2022/04/05 09:45:46;;;;;;;2.50;1.58;;;;;;;10.49;85.53;100778.34;5072392;27;96668;-34
2022/04/05 09:48:12;;;;;;;1.17;1.02;;;;;;;10.59;85.30;100790.34;5073584;27;96801;-34
2022/04/05 09:51:03;;;;;;;2.30;1.33;;;;;;;10.68;85.58;100794.31;5071319;27;100732;-34
2022/04/05 09:53:54;;;;;;;1.90;1.23;;;;;;;10.74;85.03;100793.91;5071952;27;100953;-34
2022/04/05 09:56:28;;;;;;;4.35;1.70;;;;;;;10.76;85.38;100785.69;5073918;27;96511;-34
2022/04/05 09:58:55;;;;;;;2.40;1.67;;;;;;;10.74;84.98;100791.19;5072092;27;96768;-34
2022/04/05 10:01:25;;;;;;;3.33;1.23;;;;;;;10.81;85.02;100797.09;5071814;27;99347;-34
2022/04/05 10:04:09;;;;;;;2.47;1.50;;;;;;;10.79;85.28;100796.31;5071829;27;100873;-34
2022/04/05 10:06:38;;;;;;;2.30;1.20;;;;;;;10.87;84.98;100799.44;5072046;27;96483;-34
2022/04/05 10:09:04;;;;;;;1.58;0.88;;;;;;;10.87;85.20;100788.59;5072318;27;96733;-34
2022/04/05 10:11:32;;;;;;;2.13;1.30;;;;;;;10.88;85.39;100790.34;5071115;27;101040;-34
2022/04/05 10:13:58;;;;;;;2.80;1.75;;;;;;;10.88;85.16;100776.78;5071744;27;101227;-34
2022/04/05 10:16:25;;;;;;;3.30;1.52;;;;;;;10.89;85.87;100783.94;5071348;27;96995;-34
2022/04/05 10:18:56;;;;;;;8.50;1.90;;;;;;;10.98;85.29;100785.19;5071724;27;96935;-34
2022/04/05 10:21:24;;;;;;;7.20;1.25;;;;;;;11.07;85.59;100797.28;5071738;27;101145;-34
2022/04/05 10:23:52;;;;;;;3.35;1.98;;;;;;;11.12;85.24;100782.47;5071496;27;100932;-34
2022/04/05 10:26:20;;;;;;;3.17;2.05;;;;;;;11.22;84.63;100791.72;5071669;27;96649;-34
2022/04/05 10:28:47;;;;;;;4.68;2.00;;;;;;;11.29;84.77;100789.47;5070599;27;96913;-34
2022/04/05 10:31:32;;;;;;;4.82;1.90;;;;;;;11.35;85.01;100788.22;5071491;27;100986;-34
2022/04/05 10:34:14;;;;;;;3.20;1.75;;;;;;;11.44;84.33;100785.78;5054782;27;100810;-34
2022/04/05 10:36:39;;;;;;;4.68;2.00;;;;;;;11.50;83.99;100780.91;5071524;27;96621;-34
2022/04/05 10:39:12;;;;;;;4.10;2.42;;;;;;;11.53;83.70;100776.13;5072497;27;107277;-34
2022/04/05 10:41:37;;;;;;;5.53;1.70;;;;;;;11.63;83.61;100789.97;5071998;27;113183;-34
2022/04/05 10:44:22;;;;;;;3.70;2.30;;;;;;;11.63;83.54;100789.97;5072896;27;97868;-34
2022/04/05 10:46:54;;;;;;;2.95;1.63;;;;;;;11.62;83.90;100782.81;5071382;27;96660;-34
2022/04/05 10:49:43;;;;;;;2.20;1.63;;;;;;;11.70;83.97;100794.00;5071299;27;97133;-34
2022/04/05 10:52:10;;;;;;;4.00;2.10;;;;;;;11.77;83.41;100800.75;5071163;27;100898;-34
2022/04/05 10:54:44;;;;;;;4.05;2.13;;;;;;;11.75;83.38;100793.69;5072741;27;97770;-34
2022/04/05 10:57:30;;;;;;;3.20;2.08;;;;;;;11.76;83.23;100795.44;5070582;27;97338;-34
2022/04/05 11:00:10;;;;;;;3.25;1.83;;;;;;;11.75;83.15;100794.59;5051436;27;96651;-34
2022/04/05 11:02:35;;;;;;;3.30;1.85;;;;;;;11.79;83.20;100787.94;5052176;27;97952;-34
2022/04/05 11:05:18;;;;;;;3.38;1.75;;;;;;;11.83;82.95;100799.50;5050254;27;99341;-34
2022/04/05 11:07:59;;;;;;;2.75;1.60;;;;;;;11.84;83.09;100790.34;5050018;27;96879;-34
2022/04/05 11:10:45;;;;;;;3.17;1.85;;;;;;;11.79;82.87;100785.25;5051827;27;102053;-34
2022/04/05 11:13:32;;;;;;;5.25;1.83;;;;;;;11.84;83.14;100787.66;5051743;27;100514;-34
2022/04/05 11:15:59;;;;;;;3.65;1.77;;;;;;;11.83;83.10;100781.34;5050523;27;100979;-34
2022/04/05 11:18:27;;;;;;;6.75;2.20;;;;;;;11.92;82.66;100773.56;5052002;27;96524;-34
2022/04/05 11:20:56;;;;;;;7.65;1.48;;;;;;;11.90;82.68;100780.00;5050565;27;96898;-34
2022/04/05 11:23:39;;;;;;;3.85;1.88;;;;;;;11.97;82.49;100776.88;5050467;27;97906;-34
2022/04/05 11:26:28;;;;;;;3.30;1.58;;;;;;;12.09;82.61;100778.75;5052349;27;97888;-34
2022/04/05 11:28:55;;;;;;;2.97;1.48;;;;;;;12.06;82.48;100777.09;5051804;27;96438;-34